sensor_id;sensor_type;location;lat;lon;timestamp;P1;durP1;ratioP1;P2;durP2;ratioP2
16662;SDS011;8445;51.270;9.434;2023-02-15T00:02:25;48.77;;;21.93;;
16662;SDS011;8445;51.270;9.434;2023-02-15T00:04:51;51.13;;;21.10;;
16662;SDS011;8445;51.270;9.434;2023-02-15T00:07:17;43.37;;;20.27;;
16662;SDS011;8445;51.270;9.434;2023-02-15T00:09:46;36.93;;;21.20;;
16662;SDS011;8445;51.270;9.434;2023-02-15T00:12:13;49.67;;;20.73;;
16662;SDS011;8445;51.270;9.434;2023-02-15T00:14:39;38.07;;;20.63;;
16662;SDS011;8445;51.270;9.434;2023-02-15T00:17:04;35.10;;;19.63;;
16662;SDS011;8445;51.270;9.434;2023-02-15T00:19:30;54.90;;;22.37;;
16662;SDS011;8445;51.270;9.434;2023-02-15T00:21:55;31.73;;;20.33;;
16662;SDS011;8445;51.270;9.434;2023-02-15T00:24:21;34.37;;;19.87;;
16662;SDS011;8445;51.270;9.434;2023-02-15T00:26:47;35.17;;;20.43;;
16662;SDS011;8445;51.270;9.434;2023-02-15T00:29:13;33.60;;;19.83;;
16662;SDS011;8445;51.270;9.434;2023-02-15T00:31:40;30.83;;;19.10;;
16662;SDS011;8445;51.270;9.434;2023-02-15T00:34:06;29.87;;;20.00;;
16662;SDS011;8445;51.270;9.434;2023-02-15T00:36:35;31.13;;;19.37;;
16662;SDS011;8445;51.270;9.434;2023-02-15T00:39:01;30.90;;;20.30;;
16662;SDS011;8445;51.270;9.434;2023-02-15T00:41:28;34.50;;;19.73;;
16662;SDS011;8445;51.270;9.434;2023-02-15T00:43:53;29.60;;;18.20;;
16662;SDS011;8445;51.270;9.434;2023-02-15T00:46:18;30.67;;;18.90;;
16662;SDS011;8445;51.270;9.434;2023-02-15T00:48:44;41.03;;;19.40;;
16662;SDS011;8445;51.270;9.434;2023-02-15T00:51:10;38.57;;;18.70;;
16662;SDS011;8445;51.270;9.434;2023-02-15T00:53:35;39.27;;;18.73;;
16662;SDS011;8445;51.270;9.434;2023-02-15T00:56:01;34.97;;;18.27;;
16662;SDS011;8445;51.270;9.434;2023-02-15T00:58:26;26.80;;;17.90;;
16662;SDS011;8445;51.270;9.434;2023-02-15T01:00:52;31.20;;;19.97;;
16662;SDS011;8445;51.270;9.434;2023-02-15T01:03:18;35.10;;;18.23;;
16662;SDS011;8445;51.270;9.434;2023-02-15T01:05:46;41.77;;;17.63;;
16662;SDS011;8445;51.270;9.434;2023-02-15T01:08:12;28.63;;;18.17;;
16662;SDS011;8445;51.270;9.434;2023-02-15T01:10:37;28.30;;;18.17;;
16662;SDS011;8445;51.270;9.434;2023-02-15T01:13:03;33.43;;;19.00;;
16662;SDS011;8445;51.270;9.434;2023-02-15T01:15:28;27.33;;;18.50;;
16662;SDS011;8445;51.270;9.434;2023-02-15T01:17:54;48.33;;;18.13;;
16662;SDS011;8445;51.270;9.434;2023-02-15T01:20:21;35.73;;;17.67;;
16662;SDS011;8445;51.270;9.434;2023-02-15T01:22:49;36.13;;;17.93;;
16662;SDS011;8445;51.270;9.434;2023-02-15T01:25:19;30.03;;;18.07;;
16662;SDS011;8445;51.270;9.434;2023-02-15T01:27:47;30.53;;;18.27;;
16662;SDS011;8445;51.270;9.434;2023-02-15T01:30:13;29.07;;;17.77;;
16662;SDS011;8445;51.270;9.434;2023-02-15T01:32:39;32.27;;;18.27;;
16662;SDS011;8445;51.270;9.434;2023-02-15T01:35:06;30.87;;;17.53;;
16662;SDS011;8445;51.270;9.434;2023-02-15T01:37:33;39.10;;;17.47;;
16662;SDS011;8445;51.270;9.434;2023-02-15T01:40:07;32.73;;;17.27;;
16662;SDS011;8445;51.270;9.434;2023-02-15T01:42:40;30.07;;;17.63;;
16662;SDS011;8445;51.270;9.434;2023-02-15T01:45:18;32.30;;;18.27;;
16662;SDS011;8445;51.270;9.434;2023-02-15T01:50:44;34.07;;;16.70;;
16662;SDS011;8445;51.270;9.434;2023-02-15T01:53:27;28.40;;;16.27;;
16662;SDS011;8445;51.270;9.434;2023-02-15T01:56:15;32.80;;;16.83;;
16662;SDS011;8445;51.270;9.434;2023-02-15T01:58:49;34.13;;;16.13;;
16662;SDS011;8445;51.270;9.434;2023-02-15T02:01:20;26.90;;;16.20;;
16662;SDS011;8445;51.270;9.434;2023-02-15T02:03:57;29.67;;;17.17;;
16662;SDS011;8445;51.270;9.434;2023-02-15T02:06:29;29.20;;;16.30;;
16662;SDS011;8445;51.270;9.434;2023-02-15T02:08:55;32.53;;;17.10;;
16662;SDS011;8445;51.270;9.434;2023-02-15T02:11:22;29.43;;;15.40;;
16662;SDS011;8445;51.270;9.434;2023-02-15T02:13:47;32.67;;;16.53;;
16662;SDS011;8445;51.270;9.434;2023-02-15T02:16:18;32.30;;;17.17;;
16662;SDS011;8445;51.270;9.434;2023-02-15T02:22:39;29.67;;;16.47;;
16662;SDS011;8445;51.270;9.434;2023-02-15T02:25:27;42.63;;;16.83;;
16662;SDS011;8445;51.270;9.434;2023-02-15T02:31:38;31.23;;;16.03;;
16662;SDS011;8445;51.270;9.434;2023-02-15T02:34:20;28.77;;;13.73;;
16662;SDS011;8445;51.270;9.434;2023-02-15T02:37:02;26.83;;;14.27;;
16662;SDS011;8445;51.270;9.434;2023-02-15T02:40:02;24.03;;;14.13;;
16662;SDS011;8445;51.270;9.434;2023-02-15T02:42:49;30.93;;;14.53;;
16662;SDS011;8445;51.270;9.434;2023-02-15T02:45:31;28.13;;;14.13;;
16662;SDS011;8445;51.270;9.434;2023-02-15T02:48:10;28.60;;;15.43;;
16662;SDS011;8445;51.270;9.434;2023-02-15T02:50:42;30.37;;;13.37;;
16662;SDS011;8445;51.270;9.434;2023-02-15T02:53:08;24.60;;;14.77;;
16662;SDS011;8445;51.270;9.434;2023-02-15T02:55:38;22.77;;;15.57;;
16662;SDS011;8445;51.270;9.434;2023-02-15T03:01:18;26.17;;;15.53;;
16662;SDS011;8445;51.270;9.434;2023-02-15T03:03:55;25.10;;;15.27;;
16662;SDS011;8445;51.270;9.434;2023-02-15T03:06:29;25.87;;;15.60;;
16662;SDS011;8445;51.270;9.434;2023-02-15T03:09:09;25.07;;;16.80;;
16662;SDS011;8445;51.270;9.434;2023-02-15T03:11:41;33.90;;;16.37;;
16662;SDS011;8445;51.270;9.434;2023-02-15T03:14:11;24.50;;;14.97;;
16662;SDS011;8445;51.270;9.434;2023-02-15T03:16:40;23.47;;;15.43;;
16662;SDS011;8445;51.270;9.434;2023-02-15T03:24:16;29.73;;;15.97;;
16662;SDS011;8445;51.270;9.434;2023-02-15T03:26:48;33.07;;;15.70;;
16662;SDS011;8445;51.270;9.434;2023-02-15T03:29:17;31.03;;;15.37;;
16662;SDS011;8445;51.270;9.434;2023-02-15T03:31:50;25.23;;;15.37;;
16662;SDS011;8445;51.270;9.434;2023-02-15T03:34:19;28.43;;;15.27;;
16662;SDS011;8445;51.270;9.434;2023-02-15T03:37:05;24.57;;;15.57;;
16662;SDS011;8445;51.270;9.434;2023-02-15T03:39:52;26.07;;;16.60;;
16662;SDS011;8445;51.270;9.434;2023-02-15T03:42:29;29.10;;;16.47;;
16662;SDS011;8445;51.270;9.434;2023-02-15T03:45:05;30.37;;;16.13;;
16662;SDS011;8445;51.270;9.434;2023-02-15T03:47:37;30.40;;;15.10;;
16662;SDS011;8445;51.270;9.434;2023-02-15T03:52:55;25.40;;;14.97;;
16662;SDS011;8445;51.270;9.434;2023-02-15T03:55:23;29.40;;;15.57;;
16662;SDS011;8445;51.270;9.434;2023-02-15T03:57:49;24.50;;;15.30;;
16662;SDS011;8445;51.270;9.434;2023-02-15T04:00:35;27.47;;;15.13;;
16662;SDS011;8445;51.270;9.434;2023-02-15T04:03:23;24.43;;;15.37;;
16662;SDS011;8445;51.270;9.434;2023-02-15T04:05:57;29.03;;;15.47;;
16662;SDS011;8445;51.270;9.434;2023-02-15T04:08:22;26.50;;;14.77;;
16662;SDS011;8445;51.270;9.434;2023-02-15T04:11:10;26.47;;;15.50;;
16662;SDS011;8445;51.270;9.434;2023-02-15T04:13:36;22.40;;;14.60;;
16662;SDS011;8445;51.270;9.434;2023-02-15T04:16:01;25.50;;;15.37;;
16662;SDS011;8445;51.270;9.434;2023-02-15T04:18:33;24.33;;;15.70;;
16662;SDS011;8445;51.270;9.434;2023-02-15T04:21:18;26.77;;;14.37;;
16662;SDS011;8445;51.270;9.434;2023-02-15T04:24:04;27.27;;;15.50;;
16662;SDS011;8445;51.270;9.434;2023-02-15T04:26:48;27.60;;;15.50;;
16662;SDS011;8445;51.270;9.434;2023-02-15T04:29:17;25.83;;;15.83;;
16662;SDS011;8445;51.270;9.434;2023-02-15T04:31:44;24.33;;;15.23;;
16662;SDS011;8445;51.270;9.434;2023-02-15T04:34:09;24.40;;;14.97;;
16662;SDS011;8445;51.270;9.434;2023-02-15T04:36:36;25.17;;;14.93;;
16662;SDS011;8445;51.270;9.434;2023-02-15T04:39:02;24.60;;;16.00;;
16662;SDS011;8445;51.270;9.434;2023-02-15T04:41:27;26.07;;;15.27;;
16662;SDS011;8445;51.270;9.434;2023-02-15T04:43:53;26.63;;;15.97;;
16662;SDS011;8445;51.270;9.434;2023-02-15T04:46:18;24.80;;;15.37;;
16662;SDS011;8445;51.270;9.434;2023-02-15T04:48:44;27.97;;;16.03;;
16662;SDS011;8445;51.270;9.434;2023-02-15T04:51:09;23.87;;;14.97;;
16662;SDS011;8445;51.270;9.434;2023-02-15T04:53:35;23.83;;;13.73;;
16662;SDS011;8445;51.270;9.434;2023-02-15T04:56:00;22.57;;;14.63;;
16662;SDS011;8445;51.270;9.434;2023-02-15T04:58:26;23.73;;;15.30;;
16662;SDS011;8445;51.270;9.434;2023-02-15T05:00:54;25.90;;;14.80;;
16662;SDS011;8445;51.270;9.434;2023-02-15T05:03:21;28.30;;;14.83;;
16662;SDS011;8445;51.270;9.434;2023-02-15T05:05:46;23.43;;;14.10;;
16662;SDS011;8445;51.270;9.434;2023-02-15T05:08:11;25.90;;;15.70;;
16662;SDS011;8445;51.270;9.434;2023-02-15T05:10:37;27.73;;;14.73;;
16662;SDS011;8445;51.270;9.434;2023-02-15T05:13:02;23.30;;;13.97;;
16662;SDS011;8445;51.270;9.434;2023-02-15T05:15:28;22.73;;;13.67;;
16662;SDS011;8445;51.270;9.434;2023-02-15T05:17:53;22.97;;;13.87;;
16662;SDS011;8445;51.270;9.434;2023-02-15T05:20:19;26.40;;;14.87;;
16662;SDS011;8445;51.270;9.434;2023-02-15T05:22:44;27.63;;;13.87;;
16662;SDS011;8445;51.270;9.434;2023-02-15T05:25:09;21.43;;;14.10;;
16662;SDS011;8445;51.270;9.434;2023-02-15T05:27:53;23.03;;;14.53;;
16662;SDS011;8445;51.270;9.434;2023-02-15T05:30:37;20.57;;;12.43;;
16662;SDS011;8445;51.270;9.434;2023-02-15T05:33:05;22.23;;;13.80;;
16662;SDS011;8445;51.270;9.434;2023-02-15T05:35:32;26.50;;;13.03;;
16662;SDS011;8445;51.270;9.434;2023-02-15T05:37:58;24.20;;;12.17;;
16662;SDS011;8445;51.270;9.434;2023-02-15T05:40:23;26.50;;;12.90;;
16662;SDS011;8445;51.270;9.434;2023-02-15T05:42:49;21.73;;;12.83;;
16662;SDS011;8445;51.270;9.434;2023-02-15T05:45:14;28.73;;;13.03;;
16662;SDS011;8445;51.270;9.434;2023-02-15T05:47:40;18.87;;;12.87;;
16662;SDS011;8445;51.270;9.434;2023-02-15T05:50:06;21.17;;;13.43;;
16662;SDS011;8445;51.270;9.434;2023-02-15T05:52:33;21.33;;;13.23;;
16662;SDS011;8445;51.270;9.434;2023-02-15T05:54:59;26.20;;;13.70;;
16662;SDS011;8445;51.270;9.434;2023-02-15T05:57:25;22.27;;;13.10;;
16662;SDS011;8445;51.270;9.434;2023-02-15T05:59:51;23.50;;;13.90;;
16662;SDS011;8445;51.270;9.434;2023-02-15T06:02:16;24.67;;;14.67;;
16662;SDS011;8445;51.270;9.434;2023-02-15T06:04:42;23.23;;;14.40;;
16662;SDS011;8445;51.270;9.434;2023-02-15T06:07:07;23.27;;;13.07;;
16662;SDS011;8445;51.270;9.434;2023-02-15T06:09:33;25.13;;;14.37;;
16662;SDS011;8445;51.270;9.434;2023-02-15T06:11:58;21.47;;;13.73;;
16662;SDS011;8445;51.270;9.434;2023-02-15T06:14:24;22.53;;;12.77;;
16662;SDS011;8445;51.270;9.434;2023-02-15T06:16:49;23.70;;;14.20;;
16662;SDS011;8445;51.270;9.434;2023-02-15T06:19:15;24.23;;;13.73;;
16662;SDS011;8445;51.270;9.434;2023-02-15T06:21:40;23.27;;;14.63;;
16662;SDS011;8445;51.270;9.434;2023-02-15T06:24:07;24.30;;;13.83;;
16662;SDS011;8445;51.270;9.434;2023-02-15T06:26:33;21.13;;;13.13;;
16662;SDS011;8445;51.270;9.434;2023-02-15T06:28:59;22.77;;;13.23;;
16662;SDS011;8445;51.270;9.434;2023-02-15T06:31:24;24.90;;;14.60;;
16662;SDS011;8445;51.270;9.434;2023-02-15T06:33:50;22.50;;;14.37;;
16662;SDS011;8445;51.270;9.434;2023-02-15T06:36:15;20.77;;;13.70;;
16662;SDS011;8445;51.270;9.434;2023-02-15T06:38:41;22.97;;;13.53;;
16662;SDS011;8445;51.270;9.434;2023-02-15T06:41:06;26.20;;;15.13;;
16662;SDS011;8445;51.270;9.434;2023-02-15T06:43:32;34.90;;;15.10;;
16662;SDS011;8445;51.270;9.434;2023-02-15T06:45:59;26.47;;;14.50;;
16662;SDS011;8445;51.270;9.434;2023-02-15T06:48:25;23.27;;;14.43;;
16662;SDS011;8445;51.270;9.434;2023-02-15T06:50:51;23.27;;;13.80;;
16662;SDS011;8445;51.270;9.434;2023-02-15T06:53:16;21.77;;;13.60;;
16662;SDS011;8445;51.270;9.434;2023-02-15T06:55:42;22.37;;;12.13;;
16662;SDS011;8445;51.270;9.434;2023-02-15T06:58:07;19.33;;;13.90;;
16662;SDS011;8445;51.270;9.434;2023-02-15T07:00:33;21.30;;;13.57;;
16662;SDS011;8445;51.270;9.434;2023-02-15T07:02:58;22.20;;;14.37;;
16662;SDS011;8445;51.270;9.434;2023-02-15T07:05:25;25.90;;;14.33;;
16662;SDS011;8445;51.270;9.434;2023-02-15T07:07:56;22.43;;;13.60;;
16662;SDS011;8445;51.270;9.434;2023-02-15T07:10:22;24.20;;;14.93;;
16662;SDS011;8445;51.270;9.434;2023-02-15T07:12:57;22.30;;;14.73;;
16662;SDS011;8445;51.270;9.434;2023-02-15T07:15:23;22.90;;;14.20;;
16662;SDS011;8445;51.270;9.434;2023-02-15T07:17:48;22.47;;;14.07;;
16662;SDS011;8445;51.270;9.434;2023-02-15T07:20:15;20.63;;;14.13;;
16662;SDS011;8445;51.270;9.434;2023-02-15T07:22:43;20.47;;;11.93;;
16662;SDS011;8445;51.270;9.434;2023-02-15T07:25:09;22.20;;;12.63;;
16662;SDS011;8445;51.270;9.434;2023-02-15T07:27:36;18.47;;;13.07;;
16662;SDS011;8445;51.270;9.434;2023-02-15T07:30:02;19.97;;;13.27;;
16662;SDS011;8445;51.270;9.434;2023-02-15T07:32:29;19.13;;;12.10;;
16662;SDS011;8445;51.270;9.434;2023-02-15T07:34:56;20.10;;;11.87;;
16662;SDS011;8445;51.270;9.434;2023-02-15T07:37:25;19.87;;;12.57;;
16662;SDS011;8445;51.270;9.434;2023-02-15T07:39:51;18.37;;;12.50;;
16662;SDS011;8445;51.270;9.434;2023-02-15T07:42:16;18.37;;;11.70;;
16662;SDS011;8445;51.270;9.434;2023-02-15T07:44:43;19.60;;;12.17;;
16662;SDS011;8445;51.270;9.434;2023-02-15T07:47:08;18.73;;;12.27;;
16662;SDS011;8445;51.270;9.434;2023-02-15T07:49:34;18.13;;;11.60;;
16662;SDS011;8445;51.270;9.434;2023-02-15T07:52:00;20.27;;;13.60;;
16662;SDS011;8445;51.270;9.434;2023-02-15T07:54:26;17.07;;;12.07;;
16662;SDS011;8445;51.270;9.434;2023-02-15T07:56:52;17.03;;;11.27;;
16662;SDS011;8445;51.270;9.434;2023-02-15T07:59:17;17.33;;;11.40;;
16662;SDS011;8445;51.270;9.434;2023-02-15T08:01:43;18.27;;;12.27;;
16662;SDS011;8445;51.270;9.434;2023-02-15T08:04:08;16.30;;;12.03;;
16662;SDS011;8445;51.270;9.434;2023-02-15T08:06:36;19.27;;;12.10;;
16662;SDS011;8445;51.270;9.434;2023-02-15T08:09:06;18.90;;;12.83;;
16662;SDS011;8445;51.270;9.434;2023-02-15T08:11:34;18.00;;;12.47;;
16662;SDS011;8445;51.270;9.434;2023-02-15T08:19:02;16.30;;;12.10;;
16662;SDS011;8445;51.270;9.434;2023-02-15T08:21:31;24.80;;;12.53;;
16662;SDS011;8445;51.270;9.434;2023-02-15T08:23:58;19.97;;;13.03;;
16662;SDS011;8445;51.270;9.434;2023-02-15T08:26:24;21.30;;;13.60;;
16662;SDS011;8445;51.270;9.434;2023-02-15T08:28:52;19.87;;;12.93;;
16662;SDS011;8445;51.270;9.434;2023-02-15T08:31:17;20.57;;;14.20;;
16662;SDS011;8445;51.270;9.434;2023-02-15T08:33:43;20.03;;;13.57;;
16662;SDS011;8445;51.270;9.434;2023-02-15T08:36:12;18.53;;;12.70;;
16662;SDS011;8445;51.270;9.434;2023-02-15T08:38:39;21.10;;;13.50;;
16662;SDS011;8445;51.270;9.434;2023-02-15T08:41:09;20.77;;;14.07;;
16662;SDS011;8445;51.270;9.434;2023-02-15T08:43:39;19.50;;;13.40;;
16662;SDS011;8445;51.270;9.434;2023-02-15T08:46:05;22.75;;;16.27;;
16662;SDS011;8445;51.270;9.434;2023-02-15T08:48:31;20.43;;;13.70;;
16662;SDS011;8445;51.270;9.434;2023-02-15T08:51:10;21.57;;;14.80;;
16662;SDS011;8445;51.270;9.434;2023-02-15T08:53:44;18.70;;;13.13;;
16662;SDS011;8445;51.270;9.434;2023-02-15T08:56:14;24.43;;;14.93;;
16662;SDS011;8445;51.270;9.434;2023-02-15T08:58:40;19.73;;;13.73;;
16662;SDS011;8445;51.270;9.434;2023-02-15T09:01:12;23.60;;;14.73;;
16662;SDS011;8445;51.270;9.434;2023-02-15T09:03:43;22.23;;;14.97;;
16662;SDS011;8445;51.270;9.434;2023-02-15T09:06:09;21.53;;;13.87;;
16662;SDS011;8445;51.270;9.434;2023-02-15T09:08:36;22.20;;;14.63;;
16662;SDS011;8445;51.270;9.434;2023-02-15T09:11:05;22.63;;;13.97;;
16662;SDS011;8445;51.270;9.434;2023-02-15T09:13:35;22.30;;;15.33;;
16662;SDS011;8445;51.270;9.434;2023-02-15T09:16:02;21.93;;;15.37;;
16662;SDS011;8445;51.270;9.434;2023-02-15T09:18:30;21.53;;;14.50;;
16662;SDS011;8445;51.270;9.434;2023-02-15T09:21:09;21.07;;;14.50;;
16662;SDS011;8445;51.270;9.434;2023-02-15T09:23:38;18.00;;;13.03;;
16662;SDS011;8445;51.270;9.434;2023-02-15T09:26:06;21.10;;;14.40;;
16662;SDS011;8445;51.270;9.434;2023-02-15T09:28:33;25.13;;;15.87;;
16662;SDS011;8445;51.270;9.434;2023-02-15T09:33:37;20.20;;;13.60;;
16662;SDS011;8445;51.270;9.434;2023-02-15T09:36:04;20.80;;;13.07;;
16662;SDS011;8445;51.270;9.434;2023-02-15T09:38:38;19.70;;;12.93;;
16662;SDS011;8445;51.270;9.434;2023-02-15T09:43:55;23.17;;;14.37;;
16662;SDS011;8445;51.270;9.434;2023-02-15T09:46:46;18.87;;;12.93;;
16662;SDS011;8445;51.270;9.434;2023-02-15T09:52:50;24.57;;;17.80;;
16662;SDS011;8445;51.270;9.434;2023-02-15T10:00:40;21.27;;;14.33;;
16662;SDS011;8445;51.270;9.434;2023-02-15T10:08:31;19.07;;;14.10;;
16662;SDS011;8445;51.270;9.434;2023-02-15T10:11:21;20.97;;;13.83;;
16662;SDS011;8445;51.270;9.434;2023-02-15T10:17:09;25.93;;;14.27;;
16662;SDS011;8445;51.270;9.434;2023-02-15T10:25:05;21.97;;;14.73;;
16662;SDS011;8445;51.270;9.434;2023-02-15T10:27:49;21.37;;;14.63;;
16662;SDS011;8445;51.270;9.434;2023-02-15T10:33:01;22.63;;;14.37;;
16662;SDS011;8445;51.270;9.434;2023-02-15T10:43:41;22.53;;;14.33;;
16662;SDS011;8445;51.270;9.434;2023-02-15T10:49:45;23.10;;;14.43;;
16662;SDS011;8445;51.270;9.434;2023-02-15T10:52:30;23.73;;;15.60;;
16662;SDS011;8445;51.270;9.434;2023-02-15T10:55:24;25.03;;;14.53;;
16662;SDS011;8445;51.270;9.434;2023-02-15T10:58:08;23.63;;;16.13;;
16662;SDS011;8445;51.270;9.434;2023-02-15T11:03:28;25.37;;;14.93;;
16662;SDS011;8445;51.270;9.434;2023-02-15T11:06:03;20.80;;;14.07;;
16662;SDS011;8445;51.270;9.434;2023-02-15T11:08:32;21.70;;;15.00;;
16662;SDS011;8445;51.270;9.434;2023-02-15T11:11:02;22.43;;;15.53;;
16662;SDS011;8445;51.270;9.434;2023-02-15T11:13:39;22.67;;;15.07;;
16662;SDS011;8445;51.270;9.434;2023-02-15T11:16:16;18.03;;;12.87;;
16662;SDS011;8445;51.270;9.434;2023-02-15T11:18:59;19.00;;;13.37;;
16662;SDS011;8445;51.270;9.434;2023-02-15T11:21:31;22.23;;;14.33;;
16662;SDS011;8445;51.270;9.434;2023-02-15T11:24:07;17.77;;;12.73;;
16662;SDS011;8445;51.270;9.434;2023-02-15T11:26:41;19.97;;;13.40;;
16662;SDS011;8445;51.270;9.434;2023-02-15T11:32:01;19.50;;;13.57;;
16662;SDS011;8445;51.270;9.434;2023-02-15T11:35:00;19.67;;;13.67;;
16662;SDS011;8445;51.270;9.434;2023-02-15T11:37:29;18.80;;;13.53;;
16662;SDS011;8445;51.270;9.434;2023-02-15T11:40:02;20.20;;;13.10;;
16662;SDS011;8445;51.270;9.434;2023-02-15T11:42:39;19.00;;;14.13;;
16662;SDS011;8445;51.270;9.434;2023-02-15T11:47:55;19.33;;;13.57;;
16662;SDS011;8445;51.270;9.434;2023-02-15T11:50:23;18.80;;;13.83;;
16662;SDS011;8445;51.270;9.434;2023-02-15T11:52:57;20.13;;;14.07;;
16662;SDS011;8445;51.270;9.434;2023-02-15T11:55:25;18.40;;;14.13;;
16662;SDS011;8445;51.270;9.434;2023-02-15T12:00:54;19.43;;;13.67;;
16662;SDS011;8445;51.270;9.434;2023-02-15T12:03:38;18.60;;;13.87;;
16662;SDS011;8445;51.270;9.434;2023-02-15T12:06:14;19.57;;;13.93;;
16662;SDS011;8445;51.270;9.434;2023-02-15T12:08:48;18.30;;;13.50;;
16662;SDS011;8445;51.270;9.434;2023-02-15T12:11:25;17.53;;;13.77;;
16662;SDS011;8445;51.270;9.434;2023-02-15T12:14:01;21.67;;;13.70;;
16662;SDS011;8445;51.270;9.434;2023-02-15T12:16:32;18.87;;;14.20;;
16662;SDS011;8445;51.270;9.434;2023-02-15T12:19:12;17.77;;;14.03;;
16662;SDS011;8445;51.270;9.434;2023-02-15T12:21:51;20.20;;;14.50;;
16662;SDS011;8445;51.270;9.434;2023-02-15T12:26:57;20.80;;;14.20;;
16662;SDS011;8445;51.270;9.434;2023-02-15T12:29:27;20.60;;;14.90;;
16662;SDS011;8445;51.270;9.434;2023-02-15T12:31:55;18.93;;;14.10;;
16662;SDS011;8445;51.270;9.434;2023-02-15T12:34:29;21.50;;;14.57;;
16662;SDS011;8445;51.270;9.434;2023-02-15T12:37:00;20.93;;;15.07;;
16662;SDS011;8445;51.270;9.434;2023-02-15T12:39:34;19.85;;;14.57;;
16662;SDS011;8445;51.270;9.434;2023-02-15T12:42:04;22.77;;;15.47;;
16662;SDS011;8445;51.270;9.434;2023-02-15T12:44:39;19.65;;;15.23;;
16662;SDS011;8445;51.270;9.434;2023-02-15T12:47:22;21.05;;;15.88;;
16662;SDS011;8445;51.270;9.434;2023-02-15T12:52:44;21.70;;;15.87;;
16662;SDS011;8445;51.270;9.434;2023-02-15T12:55:25;21.65;;;16.27;;
16662;SDS011;8445;51.270;9.434;2023-02-15T13:00:44;22.10;;;15.52;;
16662;SDS011;8445;51.270;9.434;2023-02-15T13:03:18;21.97;;;15.50;;
16662;SDS011;8445;51.270;9.434;2023-02-15T13:05:48;23.90;;;15.70;;
16662;SDS011;8445;51.270;9.434;2023-02-15T13:08:31;21.63;;;15.73;;
16662;SDS011;8445;51.270;9.434;2023-02-15T13:11:00;24.52;;;16.50;;
16662;SDS011;8445;51.270;9.434;2023-02-15T13:13:30;23.03;;;16.20;;
16662;SDS011;8445;51.270;9.434;2023-02-15T13:16:09;22.08;;;16.08;;
16662;SDS011;8445;51.270;9.434;2023-02-15T13:18:46;20.93;;;15.57;;
16662;SDS011;8445;51.270;9.434;2023-02-15T13:21:16;21.73;;;15.73;;
16662;SDS011;8445;51.270;9.434;2023-02-15T13:23:46;25.67;;;15.95;;
16662;SDS011;8445;51.270;9.434;2023-02-15T13:26:18;24.83;;;16.80;;
16662;SDS011;8445;51.270;9.434;2023-02-15T13:28:47;21.63;;;15.18;;
16662;SDS011;8445;51.270;9.434;2023-02-15T13:31:20;21.75;;;14.82;;
16662;SDS011;8445;51.270;9.434;2023-02-15T13:33:51;19.58;;;14.88;;
16662;SDS011;8445;51.270;9.434;2023-02-15T13:39:24;22.50;;;15.63;;
16662;SDS011;8445;51.270;9.434;2023-02-15T13:42:01;19.87;;;14.63;;
16662;SDS011;8445;51.270;9.434;2023-02-15T13:44:58;20.53;;;14.87;;
16662;SDS011;8445;51.270;9.434;2023-02-15T13:47:56;28.07;;;18.57;;
16662;SDS011;8445;51.270;9.434;2023-02-15T13:50:55;19.23;;;14.43;;
16662;SDS011;8445;51.270;9.434;2023-02-15T13:53:40;20.43;;;15.00;;
16662;SDS011;8445;51.270;9.434;2023-02-15T14:07:49;27.67;;;16.23;;
16662;SDS011;8445;51.270;9.434;2023-02-15T14:13:24;24.13;;;15.93;;
16662;SDS011;8445;51.270;9.434;2023-02-15T14:16:03;23.13;;;16.23;;
16662;SDS011;8445;51.270;9.434;2023-02-15T14:19:15;24.43;;;16.20;;
16662;SDS011;8445;51.270;9.434;2023-02-15T14:25:30;21.55;;;15.30;;
16662;SDS011;8445;51.270;9.434;2023-02-15T14:28:15;25.43;;;16.23;;
16662;SDS011;8445;51.270;9.434;2023-02-15T14:30:52;25.40;;;16.67;;
16662;SDS011;8445;51.270;9.434;2023-02-15T14:36:08;26.03;;;15.90;;
16662;SDS011;8445;51.270;9.434;2023-02-15T14:41:57;21.40;;;15.13;;
16662;SDS011;8445;51.270;9.434;2023-02-15T14:44:37;27.13;;;16.97;;
16662;SDS011;8445;51.270;9.434;2023-02-15T14:47:19;27.83;;;17.30;;
16662;SDS011;8445;51.270;9.434;2023-02-15T14:49:57;24.37;;;16.50;;
16662;SDS011;8445;51.270;9.434;2023-02-15T14:52:25;22.87;;;15.23;;
16662;SDS011;8445;51.270;9.434;2023-02-15T14:54:53;26.23;;;17.03;;
16662;SDS011;8445;51.270;9.434;2023-02-15T14:57:23;28.33;;;16.93;;
16662;SDS011;8445;51.270;9.434;2023-02-15T15:08:00;23.90;;;15.87;;
16662;SDS011;8445;51.270;9.434;2023-02-15T15:10:39;25.93;;;17.03;;
16662;SDS011;8445;51.270;9.434;2023-02-15T15:16:23;27.40;;;17.80;;
16662;SDS011;8445;51.270;9.434;2023-02-15T15:19:01;28.17;;;17.00;;
16662;SDS011;8445;51.270;9.434;2023-02-15T15:22:02;28.70;;;16.67;;
16662;SDS011;8445;51.270;9.434;2023-02-15T15:27:48;27.97;;;16.83;;
16662;SDS011;8445;51.270;9.434;2023-02-15T15:32:54;27.07;;;17.53;;
16662;SDS011;8445;51.270;9.434;2023-02-15T15:35:36;31.97;;;16.53;;
16662;SDS011;8445;51.270;9.434;2023-02-15T15:38:22;27.17;;;17.17;;
16662;SDS011;8445;51.270;9.434;2023-02-15T15:41:18;31.30;;;18.33;;
16662;SDS011;8445;51.270;9.434;2023-02-15T15:49:21;27.77;;;17.47;;
16662;SDS011;8445;51.270;9.434;2023-02-15T15:51:51;30.90;;;18.90;;
16662;SDS011;8445;51.270;9.434;2023-02-15T15:54:26;31.77;;;19.53;;
16662;SDS011;8445;51.270;9.434;2023-02-15T15:56:53;30.80;;;17.57;;
16662;SDS011;8445;51.270;9.434;2023-02-15T15:59:23;30.63;;;17.93;;
16662;SDS011;8445;51.270;9.434;2023-02-15T16:01:54;34.20;;;20.30;;
16662;SDS011;8445;51.270;9.434;2023-02-15T16:04:27;37.43;;;19.53;;
16662;SDS011;8445;51.270;9.434;2023-02-15T16:07:13;33.30;;;19.77;;
16662;SDS011;8445;51.270;9.434;2023-02-15T16:09:58;30.40;;;18.10;;
16662;SDS011;8445;51.270;9.434;2023-02-15T16:12:45;32.63;;;18.37;;
16662;SDS011;8445;51.270;9.434;2023-02-15T16:15:14;38.13;;;20.80;;
16662;SDS011;8445;51.270;9.434;2023-02-15T16:17:40;35.10;;;19.63;;
16662;SDS011;8445;51.270;9.434;2023-02-15T16:20:14;31.80;;;18.90;;
16662;SDS011;8445;51.270;9.434;2023-02-15T16:22:44;35.10;;;19.67;;
16662;SDS011;8445;51.270;9.434;2023-02-15T16:27:46;36.20;;;20.57;;
16662;SDS011;8445;51.270;9.434;2023-02-15T16:30:26;34.37;;;20.23;;
16662;SDS011;8445;51.270;9.434;2023-02-15T16:33:06;35.10;;;20.40;;
16662;SDS011;8445;51.270;9.434;2023-02-15T16:35:35;34.50;;;20.07;;
16662;SDS011;8445;51.270;9.434;2023-02-15T16:38:03;37.47;;;20.90;;
16662;SDS011;8445;51.270;9.434;2023-02-15T16:40:37;35.63;;;21.07;;
16662;SDS011;8445;51.270;9.434;2023-02-15T16:43:10;32.50;;;20.97;;
16662;SDS011;8445;51.270;9.434;2023-02-15T16:45:40;36.20;;;21.10;;
16662;SDS011;8445;51.270;9.434;2023-02-15T16:48:07;34.20;;;20.37;;
16662;SDS011;8445;51.270;9.434;2023-02-15T16:50:40;39.97;;;21.40;;
16662;SDS011;8445;51.270;9.434;2023-02-15T16:53:20;38.30;;;22.43;;
16662;SDS011;8445;51.270;9.434;2023-02-15T16:55:55;37.30;;;22.00;;
16662;SDS011;8445;51.270;9.434;2023-02-15T16:58:31;40.30;;;21.87;;
16662;SDS011;8445;51.270;9.434;2023-02-15T17:01:03;38.87;;;22.47;;
16662;SDS011;8445;51.270;9.434;2023-02-15T17:03:33;37.47;;;22.13;;
16662;SDS011;8445;51.270;9.434;2023-02-15T17:05:59;36.50;;;21.93;;
16662;SDS011;8445;51.270;9.434;2023-02-15T17:08:33;40.00;;;22.90;;
16662;SDS011;8445;51.270;9.434;2023-02-15T17:11:11;41.13;;;23.73;;
16662;SDS011;8445;51.270;9.434;2023-02-15T17:19:09;41.43;;;22.97;;
16662;SDS011;8445;51.270;9.434;2023-02-15T17:21:41;38.20;;;22.43;;
16662;SDS011;8445;51.270;9.434;2023-02-15T17:24:15;40.10;;;22.63;;
16662;SDS011;8445;51.270;9.434;2023-02-15T17:26:48;42.90;;;23.83;;